Time;durP1;ratioP1;P1;durP2;ratioP2;P2;SDS_P1;SDS_P2;PMS_P1;PMS_P2;Temp;Humidity;BMP_temperature;BMP_pressure;BME280_temperature;BME280_humidity;BME280_pressure;Samples;Min_cycle;Max_cycle;Signal;HPM_P1;HPM_P2
2021/05/27 00:01:56;;;;;;;7.40;4.25;;;;;;;;;;5053781;28;20379;-76
2021/05/27 00:04:21;;;;;;;8.73;4.78;;;;;;;;;;5071700;28;20071;-76
2021/05/27 00:06:47;;;;;;;6.80;4.07;;;;;;;;;;5073778;28;20035;-76
2021/05/27 00:09:12;;;;;;;5.65;4.40;;;;;;;;;;5073974;28;20044;-76
2021/05/27 00:11:38;;;;;;;5.47;3.97;;;;;;;;;;5072795;28;20044;-76
2021/05/27 00:14:03;;;;;;;5.97;3.75;;;;;;;;;;5061909;28;20116;-76
2021/05/27 00:16:31;;;;;;;7.15;4.50;;;;;;;;;;5053904;28;20040;-77
2021/05/27 00:18:57;;;;;;;6.90;5.15;;;;;;;;;;5054068;28;20040;-76
2021/05/27 00:21:22;;;;;;;7.47;5.07;;;;;;;;;;5054164;28;20065;-76
2021/05/27 00:23:48;;;;;;;6.55;4.22;;;;;;;;;;5054035;28;20068;-76
2021/05/27 00:26:13;;;;;;;4.80;4.35;;;;;;;;;;5036835;28;20111;-76
2021/05/27 00:28:39;;;;;;;4.95;4.07;;;;;;;;;;5053403;28;20079;-76
2021/05/27 00:31:05;;;;;;;7.53;4.65;;;;;;;;;;5054224;28;20102;-76
2021/05/27 00:33:31;;;;;;;9.20;4.65;;;;;;;;;;5036535;28;20437;-76
2021/05/27 00:35:56;;;;;;;5.47;4.97;;;;;;;;;;5052126;28;20036;-76
2021/05/27 00:38:21;;;;;;;6.63;5.03;;;;;;;;;;5053552;28;20044;-76
2021/05/27 00:40:47;;;;;;;5.15;4.57;;;;;;;;;;5053131;28;20131;-76
2021/05/27 00:43:12;;;;;;;5.80;4.53;;;;;;;;;;5053039;28;20041;-76
2021/05/27 00:45:38;;;;;;;7.20;4.85;;;;;;;;;;5052707;28;20101;-76
2021/05/27 00:48:04;;;;;;;7.53;5.25;;;;;;;;;;5036165;28;20045;-76
2021/05/27 00:50:32;;;;;;;5.90;5.30;;;;;;;;;;5036317;28;20390;-76
2021/05/27 00:52:57;;;;;;;9.60;5.00;;;;;;;;;;5053258;28;20029;-76
2021/05/27 00:55:26;;;;;;;7.70;5.15;;;;;;;;;;5052013;28;20572;-76
2021/05/27 00:57:53;;;;;;;8.88;5.38;;;;;;;;;;5035983;28;20029;-77
2021/05/27 01:00:22;;;;;;;5.32;4.55;;;;;;;;;;5052618;28;20087;-76
2021/05/27 01:02:47;;;;;;;7.75;5.32;;;;;;;;;;5053962;28;20536;-76
2021/05/27 01:05:14;;;;;;;5.43;4.72;;;;;;;;;;5054204;28;20045;-76
2021/05/27 01:07:42;;;;;;;5.93;5.00;;;;;;;;;;5053463;28;20438;-76
2021/05/27 01:10:10;;;;;;;6.38;5.15;;;;;;;;;;5053676;28;20123;-76
2021/05/27 01:12:36;;;;;;;6.03;5.30;;;;;;;;;;5054731;28;20415;-76
2021/05/27 01:18:15;;;;;;;7.35;5.10;;;;;;;;;;5073846;28;20029;-76
2021/05/27 01:20:43;;;;;;;7.60;4.80;;;;;;;;;;5073071;28;20513;-76
2021/05/27 01:23:09;;;;;;;6.18;4.68;;;;;;;;;;5073367;28;20036;-76
2021/05/27 01:25:39;;;;;;;8.18;5.05;;;;;;;;;;5074995;28;20478;-76
2021/05/27 01:28:06;;;;;;;5.72;5.13;;;;;;;;;;5073267;28;20107;-76
2021/05/27 01:30:32;;;;;;;6.10;4.60;;;;;;;;;;5072709;28;20481;-76
2021/05/27 01:32:57;;;;;;;5.72;4.75;;;;;;;;;;5055771;28;20032;-76
2021/05/27 01:35:25;;;;;;;5.82;4.40;;;;;;;;;;5061466;28;20032;-76
2021/05/27 01:37:52;;;;;;;6.22;4.78;;;;;;;;;;5054121;28;20036;-76
2021/05/27 01:40:24;;;;;;;5.65;4.30;;;;;;;;;;5042393;28;20033;-76
2021/05/27 01:42:50;;;;;;;5.40;4.05;;;;;;;;;;5035721;28;20052;-76
2021/05/27 01:45:18;;;;;;;4.72;4.25;;;;;;;;;;5038208;28;20041;-76
2021/05/27 01:47:43;;;;;;;4.97;4.13;;;;;;;;;;5038208;28;20135;-75
2021/05/27 01:50:20;;;;;;;4.75;4.15;;;;;;;;;;5038606;28;20041;-75
2021/05/27 01:52:48;;;;;;;4.72;4.32;;;;;;;;;;5039742;28;20509;-75
2021/05/27 01:55:14;;;;;;;4.43;3.97;;;;;;;;;;5038822;28;20097;-75
2021/05/27 01:57:41;;;;;;;5.13;4.32;;;;;;;;;;5038874;28;20044;-76
2021/05/27 02:00:09;;;;;;;5.07;4.35;;;;;;;;;;5021656;28;20588;-76
2021/05/27 02:02:41;;;;;;;4.68;4.00;;;;;;;;;;5038374;28;20049;-76
2021/05/27 02:05:08;;;;;;;5.13;4.63;;;;;;;;;;5052859;28;20037;-75
2021/05/27 02:07:33;;;;;;;4.82;4.38;;;;;;;;;;5041738;28;20029;-75
2021/05/27 02:09:59;;;;;;;6.53;4.78;;;;;;;;;;5058115;28;20971;-75
2021/05/27 02:12:30;;;;;;;5.70;4.97;;;;;;;;;;5056437;28;20033;-74
2021/05/27 02:14:55;;;;;;;8.43;5.15;;;;;;;;;;5057907;28;20040;-75
2021/05/27 02:17:21;;;;;;;9.00;5.38;;;;;;;;;;5057227;28;20376;-75
2021/05/27 02:19:46;;;;;;;6.22;5.40;;;;;;;;;;5058336;28;20045;-75
2021/05/27 02:22:12;;;;;;;5.32;4.80;;;;;;;;;;5041550;28;20040;-75
2021/05/27 02:24:53;;;;;;;6.82;5.88;;;;;;;;;;5057236;28;20045;-75
2021/05/27 02:27:19;;;;;;;7.15;5.07;;;;;;;;;;5039012;28;20048;-74
2021/05/27 02:29:45;;;;;;;6.30;5.43;;;;;;;;;;5055920;28;20120;-73
2021/05/27 02:32:12;;;;;;;6.07;5.47;;;;;;;;;;5055243;28;20043;-74
2021/05/27 02:34:38;;;;;;;7.55;6.18;;;;;;;;;;5056183;28;20021;-74
2021/05/27 02:37:03;;;;;;;9.48;7.15;;;;;;;;;;5040318;28;20037;-75
2021/05/27 02:39:34;;;;;;;8.73;7.05;;;;;;;;;;5040353;28;20485;-74
2021/05/27 02:42:00;;;;;;;7.47;6.70;;;;;;;;;;5055693;28;20045;-74
2021/05/27 02:44:27;;;;;;;9.23;8.13;;;;;;;;;;5054475;28;20124;-73
2021/05/27 02:46:53;;;;;;;8.82;7.25;;;;;;;;;;5056292;28;20061;-73
2021/05/27 02:49:19;;;;;;;8.57;7.03;;;;;;;;;;5056351;28;20049;-74
2021/05/27 02:51:47;;;;;;;8.55;7.65;;;;;;;;;;5055742;28;20096;-75
2021/05/27 02:54:14;;;;;;;8.77;7.88;;;;;;;;;;5055787;28;20021;-73
2021/05/27 02:56:41;;;;;;;10.38;8.65;;;;;;;;;;5055862;28;20029;-74
2021/05/27 02:59:08;;;;;;;10.27;8.70;;;;;;;;;;5054722;28;20037;-74
2021/05/27 03:01:34;;;;;;;10.05;7.93;;;;;;;;;;5054431;28;20036;-75
2021/05/27 03:04:01;;;;;;;11.50;9.05;;;;;;;;;;5058186;28;20033;-74
2021/05/27 03:06:27;;;;;;;11.05;9.77;;;;;;;;;;5056601;28;20028;-74
2021/05/27 03:08:54;;;;;;;16.10;9.80;;;;;;;;;;5057387;28;20052;-73
2021/05/27 03:11:21;;;;;;;10.13;6.28;;;;;;;;;;5056925;28;20494;-73
2021/05/27 03:13:49;;;;;;;7.35;5.03;;;;;;;;;;5057346;28;20501;-73
2021/05/27 03:16:17;;;;;;;4.90;4.07;;;;;;;;;;5056558;28;20024;-73
2021/05/27 03:18:42;;;;;;;4.88;3.95;;;;;;;;;;5057665;28;20037;-73
2021/05/27 03:21:08;;;;;;;3.97;3.55;;;;;;;;;;5057048;28;20063;-73
2021/05/27 03:23:35;;;;;;;4.65;3.30;;;;;;;;;;5055599;28;20029;-73
2021/05/27 03:26:01;;;;;;;3.20;2.90;;;;;;;;;;5056480;28;20040;-73
2021/05/27 03:28:27;;;;;;;4.75;2.72;;;;;;;;;;5056329;28;20033;-73
2021/05/27 03:30:58;;;;;;;3.42;2.95;;;;;;;;;;5053692;28;20033;-73
2021/05/27 03:33:24;;;;;;;9.32;2.67;;;;;;;;;;5053426;28;20029;-73
2021/05/27 03:35:51;;;;;;;2.47;1.85;;;;;;;;;;5054661;28;20036;-73
2021/05/27 03:38:17;;;;;;;1.85;1.75;;;;;;;;;;5053463;28;20036;-73
2021/05/27 03:40:43;;;;;;;2.17;1.85;;;;;;;;;;5053498;28;20040;-73
2021/05/27 03:43:09;;;;;;;2.55;1.77;;;;;;;;;;5053270;28;20052;-73
2021/05/27 03:45:38;;;;;;;1.58;1.48;;;;;;;;;;5053605;28;20057;-73
2021/05/27 03:48:09;;;;;;;1.77;1.67;;;;;;;;;;5053019;28;20041;-73
2021/05/27 03:50:36;;;;;;;2.83;1.70;;;;;;;;;;5054804;28;20108;-73
2021/05/27 03:53:06;;;;;;;2.13;1.67;;;;;;;;;;5053598;28;20471;-73
2021/05/27 03:55:32;;;;;;;4.32;2.15;;;;;;;;;;5055078;28;20482;-73
2021/05/27 03:57:59;;;;;;;2.60;1.70;;;;;;;;;;5054307;28;20040;-73
2021/05/27 04:03:27;;;;;;;1.40;1.30;;;;;;;;;;5053529;28;20545;-73
2021/05/27 04:08:36;;;;;;;1.52;1.30;;;;;;;;;;5055293;28;20048;-73
2021/05/27 04:11:02;;;;;;;1.67;1.15;;;;;;;;;;5055493;28;20044;-73
2021/05/27 04:13:27;;;;;;;1.17;1.02;;;;;;;;;;5054185;28;20040;-73
2021/05/27 04:15:52;;;;;;;1.17;1.10;;;;;;;;;;5055315;28;20075;-73
2021/05/27 04:18:19;;;;;;;1.35;1.25;;;;;;;;;;5055168;28;20067;-73
2021/05/27 04:20:46;;;;;;;1.20;1.10;;;;;;;;;;5054953;28;20044;-74
2021/05/27 04:23:36;;;;;;;1.20;1.02;;;;;;;;;;5037361;28;20425;-73
2021/05/27 04:26:06;;;;;;;1.10;1.10;;;;;;;;;;5054914;28;20116;-73
2021/05/27 04:28:32;;;;;;;1.27;1.17;;;;;;;;;;5054637;28;20063;-73
2021/05/27 04:31:11;;;;;;;1.77;1.10;;;;;;;;;;5055093;28;20033;-73
2021/05/27 04:33:50;;;;;;;2.85;1.30;;;;;;;;;;5054685;28;20139;-73
2021/05/27 04:36:17;;;;;;;1.98;1.10;;;;;;;;;;5052743;28;20044;-73
2021/05/27 04:38:44;;;;;;;1.13;1.08;;;;;;;;;;5054475;28;20021;-73
2021/05/27 04:41:10;;;;;;;1.35;1.20;;;;;;;;;;5054224;28;20048;-73
2021/05/27 04:43:38;;;;;;;2.28;1.20;;;;;;;;;;5054664;28;20044;-73
2021/05/27 04:46:04;;;;;;;2.10;1.17;;;;;;;;;;5054132;28;20194;-73
2021/05/27 04:48:29;;;;;;;1.67;1.45;;;;;;;;;;5053100;28;20502;-73
2021/05/27 04:50:55;;;;;;;1.40;1.20;;;;;;;;;;5053250;28;20028;-73
2021/05/27 04:53:23;;;;;;;1.35;1.25;;;;;;;;;;5051887;28;20056;-73
2021/05/27 04:55:49;;;;;;;1.13;1.00;;;;;;;;;;5052865;28;20040;-73
2021/05/27 04:58:15;;;;;;;1.70;1.25;;;;;;;;;;5053016;28;20129;-73
2021/05/27 05:00:40;;;;;;;1.48;1.20;;;;;;;;;;5053108;28;20090;-73
2021/05/27 05:03:06;;;;;;;1.73;1.10;;;;;;;;;;5052103;28;20037;-73
2021/05/27 05:05:34;;;;;;;2.10;1.20;;;;;;;;;;5053014;28;20033;-72
2021/05/27 05:08:00;;;;;;;1.58;1.10;;;;;;;;;;5051718;28;20033;-73
2021/05/27 05:10:27;;;;;;;1.15;1.10;;;;;;;;;;5052825;28;20083;-71
2021/05/27 05:12:54;;;;;;;1.35;1.17;;;;;;;;;;5052816;28;20391;-74
2021/05/27 05:15:22;;;;;;;2.15;1.08;;;;;;;;;;5052882;28;20068;-74
2021/05/27 05:17:51;;;;;;;2.30;1.65;;;;;;;;;;5056705;28;20094;-74
2021/05/27 05:20:18;;;;;;;1.67;1.20;;;;;;;;;;5057055;28;20115;-73
2021/05/27 05:22:44;;;;;;;1.42;1.20;;;;;;;;;;5056771;28;20498;-74
2021/05/27 05:25:10;;;;;;;1.10;1.00;;;;;;;;;;5048409;28;20037;-78
2021/05/27 05:27:35;;;;;;;3.25;1.40;;;;;;;;;;5040179;28;20133;-77
2021/05/27 05:30:01;;;;;;;1.65;1.25;;;;;;;;;;5036624;28;20037;-76
2021/05/27 05:32:26;;;;;;;2.70;1.70;;;;;;;;;;5036997;28;20033;-76
2021/05/27 05:34:54;;;;;;;2.80;2.10;;;;;;;;;;5032925;28;20128;-76
2021/05/27 05:37:19;;;;;;;2.35;1.38;;;;;;;;;;5034682;28;20045;-76
2021/05/27 05:39:44;;;;;;;1.52;1.10;;;;;;;;;;5043474;28;20033;-75
2021/05/27 05:42:10;;;;;;;0.80;0.80;;;;;;;;;;5056507;28;20055;-75
2021/05/27 05:44:35;;;;;;;1.15;1.05;;;;;;;;;;5056725;28;20068;-76
2021/05/27 05:47:00;;;;;;;1.08;1.08;;;;;;;;;;5056537;28;20112;-76
2021/05/27 05:49:26;;;;;;;0.80;0.80;;;;;;;;;;5056648;28;20033;-76
2021/05/27 05:51:51;;;;;;;2.95;1.23;;;;;;;;;;5055119;28;20036;-76
2021/05/27 05:54:17;;;;;;;0.60;0.60;;;;;;;;;;5056253;28;20033;-77
2021/05/27 05:56:42;;;;;;;2.47;0.70;;;;;;;;;;5056173;28;20033;-77
2021/05/27 05:59:08;;;;;;;3.58;1.05;;;;;;;;;;5055047;28;20040;-76
2021/05/27 06:01:33;;;;;;;0.73;0.70;;;;;;;;;;5056278;28;20028;-77
2021/05/27 06:03:59;;;;;;;1.05;0.90;;;;;;;;;;5055056;28;20086;-77
2021/05/27 06:06:44;;;;;;;1.75;1.23;;;;;;;;;;5053935;28;20032;-77
2021/05/27 06:09:18;;;;;;;0.73;0.70;;;;;;;;;;5055004;28;20036;-77
2021/05/27 06:11:43;;;;;;;1.83;0.90;;;;;;;;;;5056206;28;20112;-77
2021/05/27 06:14:09;;;;;;;0.65;0.50;;;;;;;;;;5054124;28;20489;-77
2021/05/27 06:16:34;;;;;;;0.80;0.80;;;;;;;;;;5054397;28;20465;-77
2021/05/27 06:19:00;;;;;;;1.90;0.90;;;;;;;;;;5054807;28;20522;-77
2021/05/27 06:21:36;;;;;;;2.03;0.63;;;;;;;;;;5054982;28;20462;-77
2021/05/27 06:24:08;;;;;;;0.75;0.70;;;;;;;;;;5054878;28;20037;-77
2021/05/27 06:26:35;;;;;;;0.90;0.90;;;;;;;;;;5055357;28;20033;-77
2021/05/27 06:29:01;;;;;;;0.80;0.70;;;;;;;;;;5055561;28;20493;-76
2021/05/27 06:31:26;;;;;;;0.90;0.90;;;;;;;;;;5055663;28;20045;-76
2021/05/27 06:33:52;;;;;;;3.08;0.88;;;;;;;;;;5055865;28;20057;-76
2021/05/27 06:36:17;;;;;;;1.05;0.77;;;;;;;;;;5054786;28;20459;-79
2021/05/27 06:38:43;;;;;;;1.63;0.80;;;;;;;;;;5060565;28;20033;-78
2021/05/27 06:41:09;;;;;;;1.20;1.20;;;;;;;;;;5054297;28;20491;-78
2021/05/27 06:47:12;;;;;;;1.30;1.17;;;;;;;;;;5044261;28;20040;-79
2021/05/27 06:49:38;;;;;;;1.30;1.20;;;;;;;;;;5041960;28;20030;-80
2021/05/27 06:52:04;;;;;;;1.08;0.98;;;;;;;;;;5040965;28;20025;-79
2021/05/27 06:54:30;;;;;;;0.90;0.90;;;;;;;;;;5039188;28;20471;-80
2021/05/27 06:56:57;;;;;;;1.30;1.20;;;;;;;;;;5040098;28;20056;-78
2021/05/27 06:59:22;;;;;;;1.40;1.30;;;;;;;;;;5040582;28;20399;-77
2021/05/27 07:01:48;;;;;;;1.85;1.40;;;;;;;;;;5037395;28;20108;-77
2021/05/27 07:04:13;;;;;;;1.45;1.30;;;;;;;;;;5035877;28;20430;-77
2021/05/27 07:06:39;;;;;;;4.32;2.47;;;;;;;;;;5034117;28;20377;-77
2021/05/27 07:09:04;;;;;;;2.10;1.70;;;;;;;;;;5049583;28;20486;-77
2021/05/27 07:11:30;;;;;;;2.03;1.70;;;;;;;;;;5054790;28;20041;-77
2021/05/27 07:13:55;;;;;;;1.67;1.58;;;;;;;;;;5055928;28;20091;-78
2021/05/27 07:16:21;;;;;;;2.63;1.70;;;;;;;;;;5054755;28;20041;-77
2021/05/27 07:18:46;;;;;;;4.15;1.90;;;;;;;;;;5055677;28;20104;-76
2021/05/27 07:21:12;;;;;;;3.33;1.85;;;;;;;;;;5054751;28;20475;-77
2021/05/27 07:23:37;;;;;;;2.28;1.70;;;;;;;;;;5054878;28;20036;-76
2021/05/27 07:26:04;;;;;;;1.90;1.80;;;;;;;;;;5053884;28;20064;-76
2021/05/27 07:28:30;;;;;;;3.28;1.60;;;;;;;;;;5054666;28;20455;-77
2021/05/27 07:30:56;;;;;;;3.70;1.80;;;;;;;;;;5056136;28;20033;-77
2021/05/27 07:33:21;;;;;;;1.63;1.52;;;;;;;;;;5054364;28;20081;-78
2021/05/27 07:35:46;;;;;;;5.20;1.88;;;;;;;;;;5043784;28;20040;-79
2021/05/27 07:38:12;;;;;;;2.10;1.50;;;;;;;;;;5035459;28;20044;-80
2021/05/27 07:40:38;;;;;;;1.63;1.52;;;;;;;;;;5038677;28;20049;-78
2021/05/27 07:43:04;;;;;;;3.42;1.70;;;;;;;;;;5036210;28;20073;-77
2021/05/27 07:45:30;;;;;;;2.55;1.50;;;;;;;;;;5037310;28;20087;-78
2021/05/27 07:47:55;;;;;;;1.73;1.27;;;;;;;;;;5036087;28;20037;-77
2021/05/27 07:50:22;;;;;;;1.55;1.45;;;;;;;;;;5035656;28;20124;-78
2021/05/27 07:52:48;;;;;;;1.63;1.52;;;;;;;;;;5035291;28;20030;-78
2021/05/27 07:55:14;;;;;;;3.90;1.60;;;;;;;;;;5046540;28;20036;-79
2021/05/27 07:57:39;;;;;;;1.80;1.40;;;;;;;;;;5058011;28;20029;-79
2021/05/27 08:00:06;;;;;;;1.88;1.35;;;;;;;;;;5059115;28;20037;-78
2021/05/27 08:02:38;;;;;;;1.85;1.52;;;;;;;;;;5060221;28;20044;-78
2021/05/27 08:05:04;;;;;;;2.00;1.80;;;;;;;;;;5051259;28;20029;-79
2021/05/27 08:07:30;;;;;;;2.10;1.30;;;;;;;;;;5033924;28;20119;-76
2021/05/27 08:09:55;;;;;;;2.03;1.58;;;;;;;;;;5034062;28;20065;-76
2021/05/27 08:12:21;;;;;;;3.30;1.55;;;;;;;;;;5040617;28;20040;-77
2021/05/27 08:14:46;;;;;;;1.70;1.50;;;;;;;;;;5054901;28;20035;-77
2021/05/27 08:17:12;;;;;;;1.83;1.48;;;;;;;;;;5053877;28;20071;-77
2021/05/27 08:19:38;;;;;;;1.60;1.30;;;;;;;;;;5056027;28;20036;-77
2021/05/27 08:22:04;;;;;;;1.40;1.30;;;;;;;;;;5053775;28;20556;-77
2021/05/27 08:24:30;;;;;;;1.48;1.38;;;;;;;;;;5070879;28;20032;-77
2021/05/27 08:26:56;;;;;;;1.67;1.58;;;;;;;;;;5073464;28;20094;-76
2021/05/27 08:29:21;;;;;;;1.38;1.27;;;;;;;;;;5073840;28;20482;-77
2021/05/27 08:31:47;;;;;;;1.58;1.42;;;;;;;;;;5074766;28;20090;-77
2021/05/27 08:34:12;;;;;;;1.60;1.40;;;;;;;;;;5075716;28;20123;-79
2021/05/27 08:36:38;;;;;;;1.35;1.25;;;;;;;;;;5077025;28;20077;-80
2021/05/27 08:39:08;;;;;;;1.30;1.20;;;;;;;;;;5076380;28;20052;-76
2021/05/27 08:41:34;;;;;;;1.58;1.48;;;;;;;;;;5073979;28;20167;-77
2021/05/27 08:44:02;;;;;;;3.90;1.23;;;;;;;;;;5074468;28;20533;-77
2021/05/27 08:46:27;;;;;;;1.67;1.17;;;;;;;;;;5074666;28;20028;-77
2021/05/27 08:48:52;;;;;;;1.38;1.10;;;;;;;;;;5075379;28;20040;-77
2021/05/27 08:51:18;;;;;;;1.20;1.10;;;;;;;;;;5074764;28;20044;-77
2021/05/27 08:53:44;;;;;;;1.30;1.20;;;;;;;;;;5075647;28;20512;-77
2021/05/27 08:56:11;;;;;;;2.08;1.13;;;;;;;;;;5076557;28;20032;-77
2021/05/27 08:58:37;;;;;;;1.50;1.30;;;;;;;;;;5074881;28;20390;-77
2021/05/27 09:01:03;;;;;;;1.35;1.20;;;;;;;;;;5056398;28;20040;-77
2021/05/27 09:03:45;;;;;;;1.73;1.38;;;;;;;;;;5053970;28;20491;-76
2021/05/27 09:06:12;;;;;;;3.10;1.27;;;;;;;;;;5057794;28;20044;-77
2021/05/27 09:08:39;;;;;;;1.20;1.00;;;;;;;;;;5059249;28;20056;-77
2021/05/27 09:11:06;;;;;;;1.10;1.00;;;;;;;;;;5056952;28;20047;-76
2021/05/27 09:13:36;;;;;;;0.95;0.95;;;;;;;;;;5058215;28;20082;-78
2021/05/27 09:16:19;;;;;;;1.02;1.00;;;;;;;;;;5055469;28;20064;-76
2021/05/27 09:18:45;;;;;;;0.90;0.90;;;;;;;;;;5054416;28;20044;-77
2021/05/27 09:21:13;;;;;;;1.05;0.95;;;;;;;;;;5056119;28;20025;-76
2021/05/27 09:23:46;;;;;;;1.35;1.10;;;;;;;;;;5057707;28;20044;-76
2021/05/27 09:26:15;;;;;;;2.75;0.90;;;;;;;;;;5064538;28;20033;-77
2021/05/27 09:28:43;;;;;;;2.30;0.90;;;;;;;;;;5077763;28;20032;-77
2021/05/27 09:31:11;;;;;;;1.00;0.90;;;;;;;;;;5077198;28;20482;-78
2021/05/27 09:33:42;;;;;;;2.25;1.10;;;;;;;;;;5075390;28;20040;-77
2021/05/27 09:36:09;;;;;;;1.52;0.88;;;;;;;;;;5075203;28;20036;-75
2021/05/27 09:38:53;;;;;;;1.23;0.98;;;;;;;;;;5073544;28;20109;-76
2021/05/27 09:41:23;;;;;;;0.90;0.90;;;;;;;;;;5033635;28;20037;-76
2021/05/27 09:43:53;;;;;;;1.20;1.08;;;;;;;;;;5033081;28;20029;-77
2021/05/27 09:46:21;;;;;;;1.10;0.90;;;;;;;;;;5033034;28;20183;-79
2021/05/27 09:48:46;;;;;;;2.55;0.95;;;;;;;;;;5032507;28;20041;-76
2021/05/27 09:51:27;;;;;;;1.58;1.10;;;;;;;;;;5033768;28;20036;-75
2021/05/27 09:53:54;;;;;;;2.00;1.25;;;;;;;;;;5033343;28;20052;-76
2021/05/27 09:56:37;;;;;;;1.15;1.00;;;;;;;;;;5033647;28;20435;-77
2021/05/27 09:59:03;;;;;;;2.20;1.17;;;;;;;;;;5034655;28;20044;-77
2021/05/27 10:01:29;;;;;;;1.10;1.00;;;;;;;;;;5032137;28;20072;-75
2021/05/27 10:04:10;;;;;;;0.93;0.82;;;;;;;;;;5036460;28;20069;-75
2021/05/27 10:06:36;;;;;;;1.40;1.15;;;;;;;;;;5036486;28;20475;-77
2021/05/27 10:09:04;;;;;;;2.00;1.30;;;;;;;;;;5039679;28;20087;-78
2021/05/27 10:11:29;;;;;;;1.33;1.10;;;;;;;;;;5056761;28;20037;-76
2021/05/27 10:13:54;;;;;;;2.10;1.55;;;;;;;;;;5055422;28;20036;-75
2021/05/27 10:16:23;;;;;;;2.55;1.42;;;;;;;;;;5058004;28;20119;-76
2021/05/27 10:18:49;;;;;;;1.88;1.30;;;;;;;;;;5055196;28;20037;-75
2021/05/27 10:21:15;;;;;;;1.75;1.40;;;;;;;;;;5054718;28;20087;-76
2021/05/27 10:23:41;;;;;;;1.30;1.20;;;;;;;;;;5056053;28;20029;-75
2021/05/27 10:26:07;;;;;;;1.30;1.20;;;;;;;;;;5054319;28;20045;-75
2021/05/27 10:28:34;;;;;;;1.95;1.35;;;;;;;;;;5055685;28;20032;-75
2021/05/27 10:31:01;;;;;;;1.73;1.40;;;;;;;;;;5055537;28;20115;-78
2021/05/27 10:33:35;;;;;;;1.02;0.93;;;;;;;;;;5055833;28;20428;-77
2021/05/27 10:36:02;;;;;;;1.13;0.98;;;;;;;;;;5068634;28;20490;-76
2021/05/27 10:38:49;;;;;;;2.75;1.20;;;;;;;;;;5075365;28;20032;-76
2021/05/27 10:41:16;;;;;;;1.25;1.15;;;;;;;;;;5075311;28;20049;-77
2021/05/27 10:44:04;;;;;;;3.30;1.45;;;;;;;;;;5075375;28;20042;-77
2021/05/27 10:46:53;;;;;;;1.55;1.23;;;;;;;;;;5075368;28;20061;-76
2021/05/27 10:49:45;;;;;;;2.42;1.60;;;;;;;;;;5074974;28;20032;-76
2021/05/27 10:52:35;;;;;;;3.75;2.88;;;;;;;;;;5073821;28;20074;-77
2021/05/27 10:55:03;;;;;;;2.15;1.52;;;;;;;;;;5075161;28;20044;-76
2021/05/27 10:57:41;;;;;;;4.35;1.30;;;;;;;;;;5074988;28;20064;-76
2021/05/27 11:00:18;;;;;;;2.40;1.55;;;;;;;;;;5074489;28;20036;-77
2021/05/27 11:02:44;;;;;;;1.88;1.60;;;;;;;;;;5075796;28;20036;-76
2021/05/27 11:05:16;;;;;;;1.77;1.40;;;;;;;;;;5074724;28;20043;-76
2021/05/27 11:08:17;;;;;;;1.77;1.55;;;;;;;;;;5075103;28;20051;-76
2021/05/27 11:10:42;;;;;;;2.00;1.80;;;;;;;;;;5055511;28;20039;-76
2021/05/27 11:13:08;;;;;;;2.15;1.40;;;;;;;;;;5053560;28;20041;-77
2021/05/27 11:15:34;;;;;;;1.60;1.30;;;;;;;;;;5057067;28;20044;-78
2021/05/27 11:18:10;;;;;;;1.95;1.63;;;;;;;;;;5075530;28;20158;-78
2021/05/27 11:20:37;;;;;;;4.95;1.90;;;;;;;;;;5082729;28;20033;-78
2021/05/27 11:23:18;;;;;;;2.15;1.95;;;;;;;;;;5085350;28;20047;-77
2021/05/27 11:25:44;;;;;;;1.90;1.70;;;;;;;;;;5081169;28;20028;-76
2021/05/27 11:28:11;;;;;;;2.00;1.70;;;;;;;;;;5076989;28;20032;-76
2021/05/27 11:30:40;;;;;;;3.50;2.10;;;;;;;;;;5074999;28;20037;-75
2021/05/27 11:33:30;;;;;;;2.17;1.98;;;;;;;;;;5073333;28;20054;-75
2021/05/27 11:35:58;;;;;;;2.72;2.40;;;;;;;;;;5066294;28;20123;-75
2021/05/27 11:38:26;;;;;;;5.18;2.08;;;;;;;;;;5054376;28;20037;-75
2021/05/27 11:41:05;;;;;;;2.67;2.17;;;;;;;;;;5054316;28;20036;-75
2021/05/27 11:43:48;;;;;;;6.10;2.10;;;;;;;;;;5052963;28;20140;-75
2021/05/27 11:46:26;;;;;;;4.47;2.30;;;;;;;;;;5054157;28;20479;-75
2021/05/27 11:51:26;;;;;;;2.30;2.10;;;;;;;;;;5053662;28;20032;-75
2021/05/27 11:53:57;;;;;;;3.25;2.10;;;;;;;;;;5054160;28;20032;-75
2021/05/27 11:56:50;;;;;;;2.40;1.98;;;;;;;;;;5054024;28;20059;-75
2021/05/27 11:59:26;;;;;;;5.20;3.78;;;;;;;;;;5053804;28;20048;-75
2021/05/27 12:02:01;;;;;;;2.15;1.88;;;;;;;;;;5053944;28;20115;-75
2021/05/27 12:04:30;;;;;;;2.27;1.90;;;;;;;;;;5052667;28;20064;-75
2021/05/27 12:07:19;;;;;;;2.30;2.10;;;;;;;;;;5053346;28;20035;-75
2021/05/27 12:09:46;;;;;;;4.57;2.20;;;;;;;;;;5053986;28;20468;-75
2021/05/27 12:12:25;;;;;;;4.82;2.38;;;;;;;;;;5053602;28;20036;-75
2021/05/27 12:14:54;;;;;;;3.15;2.28;;;;;;;;;;5052859;28;20500;-75
2021/05/27 12:17:23;;;;;;;3.97;2.50;;;;;;;;;;5053574;28;20051;-75
2021/05/27 12:19:51;;;;;;;6.55;2.50;;;;;;;;;;5052288;28;20043;-75
2021/05/27 12:22:17;;;;;;;2.30;2.10;;;;;;;;;;5053267;28;20047;-75
2021/05/27 12:24:42;;;;;;;3.45;2.72;;;;;;;;;;5052850;28;20033;-75
2021/05/27 12:27:08;;;;;;;2.72;2.42;;;;;;;;;;5053516;28;20037;-75
2021/05/27 12:29:33;;;;;;;2.97;2.50;;;;;;;;;;5053667;28;20129;-75
2021/05/27 12:31:59;;;;;;;4.38;2.88;;;;;;;;;;5052027;28;20044;-75
2021/05/27 12:34:25;;;;;;;4.28;2.70;;;;;;;;;;5052102;28;20017;-75
2021/05/27 12:36:59;;;;;;;4.07;2.80;;;;;;;;;;5051914;28;20102;-75
2021/05/27 12:39:43;;;;;;;3.25;2.30;;;;;;;;;;5053242;28;20029;-75
2021/05/27 12:42:10;;;;;;;2.85;2.33;;;;;;;;;;5052208;28;20049;-75
2021/05/27 12:44:42;;;;;;;2.72;2.42;;;;;;;;;;5053170;28;20143;-75
2021/05/27 12:47:26;;;;;;;3.03;2.30;;;;;;;;;;5053194;28;20053;-75
2021/05/27 12:49:54;;;;;;;3.40;1.92;;;;;;;;;;5053126;28;20040;-74
2021/05/27 12:52:41;;;;;;;2.40;1.90;;;;;;;;;;5052856;28;20029;-75
2021/05/27 12:55:09;;;;;;;3.58;2.13;;;;;;;;;;5053027;28;20056;-75
2021/05/27 12:57:49;;;;;;;4.28;2.30;;;;;;;;;;5053005;28;20037;-75
2021/05/27 13:00:15;;;;;;;4.28;1.67;;;;;;;;;;5052616;28;20379;-75
2021/05/27 13:02:41;;;;;;;2.38;1.83;;;;;;;;;;5051535;28;20047;-75
2021/05/27 13:05:18;;;;;;;2.83;2.05;;;;;;;;;;5052894;28;20104;-75
2021/05/27 13:07:57;;;;;;;2.83;1.70;;;;;;;;;;5053035;28;20040;-75
2021/05/27 13:10:34;;;;;;;2.22;1.50;;;;;;;;;;5051891;28;20472;-75
2021/05/27 13:13:00;;;;;;;2.15;1.45;;;;;;;;;;5052863;28;20486;-75
2021/05/27 13:15:26;;;;;;;3.53;1.80;;;;;;;;;;5052877;28;20095;-75
2021/05/27 13:18:09;;;;;;;4.93;1.60;;;;;;;;;;5052860;28;20475;-75
2021/05/27 13:20:53;;;;;;;2.67;1.95;;;;;;;;;;5053219;28;20083;-75
2021/05/27 13:23:44;;;;;;;2.63;1.98;;;;;;;;;;5052706;28;20049;-74
2021/05/27 13:26:21;;;;;;;2.00;1.80;;;;;;;;;;5051005;28;20056;-75
2021/05/27 13:29:07;;;;;;;4.10;2.00;;;;;;;;;;5052511;28;20056;-74
2021/05/27 13:31:41;;;;;;;2.95;1.80;;;;;;;;;;5052596;28;20063;-75
2021/05/27 13:34:06;;;;;;;3.38;1.65;;;;;;;;;;5052533;28;20025;-75
2021/05/27 13:36:42;;;;;;;2.42;2.00;;;;;;;;;;5053817;28;20391;-76
2021/05/27 13:39:13;;;;;;;;;;;;;;;;;;5056075;28;20479;-75
2021/05/27 13:41:39;;;;;;;1.90;1.70;;;;;;;;;;5056425;28;20392;-75
2021/05/27 13:44:04;;;;;;;4.55;2.00;;;;;;;;;;5056455;28;20041;-75
2021/05/27 13:46:30;;;;;;;3.65;2.30;;;;;;;;;;5055369;28;20049;-75
2021/05/27 13:48:55;;;;;;;3.72;2.38;;;;;;;;;;5056253;28;20037;-75
2021/05/27 13:51:21;;;;;;;5.38;2.00;;;;;;;;;;5056310;28;20082;-75
2021/05/27 13:53:47;;;;;;;2.40;2.10;;;;;;;;;;5056463;28;20071;-75
2021/05/27 13:56:20;;;;;;;2.78;2.30;;;;;;;;;;5056225;28;20068;-75
2021/05/27 13:58:45;;;;;;;3.25;2.60;;;;;;;;;;5056154;28;20037;-75
2021/05/27 14:01:11;;;;;;;7.28;2.30;;;;;;;;;;5054521;28;20448;-75
2021/05/27 14:03:37;;;;;;;3.60;2.35;;;;;;;;;;5055968;28;20036;-75
2021/05/27 14:06:06;;;;;;;2.97;2.10;;;;;;;;;;5054983;28;20068;-75
2021/05/27 14:08:33;;;;;;;2.78;2.15;;;;;;;;;;5056060;28;20032;-75
2021/05/27 14:10:59;;;;;;;3.20;2.25;;;;;;;;;;5055977;28;20032;-75
2021/05/27 14:13:24;;;;;;;3.22;2.15;;;;;;;;;;5054736;28;20409;-76
2021/05/27 14:15:50;;;;;;;4.10;1.90;;;;;;;;;;5055742;28;20037;-76
2021/05/27 14:18:15;;;;;;;2.70;2.08;;;;;;;;;;5055757;28;20052;-76
2021/05/27 14:20:41;;;;;;;2.03;1.60;;;;;;;;;;5055670;28;20040;-76
2021/05/27 14:23:06;;;;;;;4.07;1.60;;;;;;;;;;5055748;28;20040;-76
2021/05/27 14:25:32;;;;;;;2.28;1.45;;;;;;;;;;5055789;28;20422;-76
2021/05/27 14:27:58;;;;;;;2.13;1.33;;;;;;;;;;5055696;28;20098;-76
2021/05/27 14:30:23;;;;;;;3.22;1.45;;;;;;;;;;5054519;28;20040;-76
2021/05/27 14:32:49;;;;;;;1.60;1.50;;;;;;;;;;5055419;28;20055;-74
2021/05/27 14:35:14;;;;;;;1.45;1.35;;;;;;;;;;5049486;28;20044;-75
2021/05/27 14:37:39;;;;;;;1.85;1.50;;;;;;;;;;5053817;28;20037;-75
2021/05/27 14:40:06;;;;;;;2.97;1.35;;;;;;;;;;5054291;28;20086;-76
2021/05/27 14:42:31;;;;;;;2.25;1.67;;;;;;;;;;5052675;28;20069;-75
2021/05/27 14:44:57;;;;;;;1.50;1.40;;;;;;;;;;5055337;28;20068;-74
2021/05/27 14:47:22;;;;;;;1.77;1.60;;;;;;;;;;5054839;28;20071;-75
2021/05/27 14:49:47;;;;;;;1.90;1.40;;;;;;;;;;5055030;28;20033;-77
2021/05/27 14:52:13;;;;;;;2.85;1.42;;;;;;;;;;5054966;28;20048;-76
2021/05/27 14:54:38;;;;;;;2.92;1.75;;;;;;;;;;5054816;28;20028;-74
2021/05/27 14:57:05;;;;;;;4.80;2.05;;;;;;;;;;5054544;28;20029;-76
2021/05/27 14:59:30;;;;;;;2.53;1.92;;;;;;;;;;5055645;28;20036;-76
2021/05/27 15:01:56;;;;;;;2.63;1.90;;;;;;;;;;5056628;28;20033;-75
2021/05/27 15:04:21;;;;;;;6.82;1.60;;;;;;;;;;5053672;28;20044;-77
2021/05/27 15:06:47;;;;;;;2.13;1.45;;;;;;;;;;5052916;28;20029;-74